Saint Charles — WDF2626 — position and weather

sailwx.info

Track history (hours):
 
Tides and Currents Weather Stations Pressure Air Temp Water Temp Dewpoint Dewpoint Depression Visibility Wind Speed Wind Dir Waves Ship Positions

Saint Charles

Owner: Higman Barge Lines, Inc, Orange, TX. More information available from US FCC via Universal Licensing System and Coast Guard Vessel Documentation Center.

Last reported at 2017-Nov-20 00:16 UTC. Time now 2017-Nov-21 11:46 UTC.
Position N 29°46' W 095°05'.

Length 26 m; draft 3.3 m.

Type: Towing. MMSI: 367430030.

Date/timePositionNaut miles runAvg speedWind from/ knotsBaromVisibWave heightAir tempDewpointWater temp
2017-Nov-20 00:16N 29°46' W 095°05'1 1.7
2017-Nov-19 23:58N 29°46' W 095°05'4 7.5
2017-Nov-19 23:28N 29°44' W 095°01'3 6.8
2017-Nov-19 23:00N 29°41' W 094°59'4 8.6
2017-Nov-19 22:30N 29°37' W 094°57'4 8.9
2017-Nov-19 22:00N 29°33' W 094°55'  
2017-Nov-16 12:45N 29°60' W 093°55'0 0.0
2017-Nov-16 11:02N 29°60' W 093°55'0 0.0
2017-Nov-16 10:44N 29°60' W 093°55'0 0.0
2017-Nov-16 10:23N 29°60' W 093°55'0 0.0
2017-Nov-16 10:00N 29°60' W 093°55'  
2017-Nov-11 00:04N 29°30' W 094°52'1 8.1
2017-Nov-10 23:55N 29°31' W 094°53'3 8.5
2017-Nov-10 23:30N 29°34' W 094°55'4 8.3
2017-Nov-10 23:00N 29°37' W 094°58'5 9.0
2017-Nov-10 22:30N 29°41' W 094°59'5 7.9
2017-Nov-10 21:54N 29°44' W 095°04'  
Track history (hours):
 
Tides and Currents Weather Stations Pressure Air Temp Water Temp Dewpoint Dewpoint Depression Visibility Wind Speed Wind Dir Waves Ship Positions

Saint Charles

Owner: Higman Barge Lines, Inc, Orange, TX. More information available from US FCC via Universal Licensing System and Coast Guard Vessel Documentation Center.

Last reported at 2017-Nov-20 00:16 UTC. Time now 2017-Nov-21 11:46 UTC.
Position N 29°46' W 095°05'.

Length 26 m; draft 3.3 m.

Type: Towing. MMSI: 367430030.

Date/timePositionNaut miles runAvg speedWind from/ knotsBaromVisibWave heightAir tempDewpointWater temp
2017-Nov-20 00:16N 29°46' W 095°05'1 1.7
2017-Nov-19 23:58N 29°46' W 095°05'4 7.5
2017-Nov-19 23:28N 29°44' W 095°01'3 6.8
2017-Nov-19 23:00N 29°41' W 094°59'4 8.6
2017-Nov-19 22:30N 29°37' W 094°57'4 8.9
2017-Nov-19 22:00N 29°33' W 094°55'  
2017-Nov-16 12:45N 29°60' W 093°55'0 0.0
2017-Nov-16 11:02N 29°60' W 093°55'0 0.0
2017-Nov-16 10:44N 29°60' W 093°55'0 0.0
2017-Nov-16 10:23N 29°60' W 093°55'0 0.0
2017-Nov-16 10:00N 29°60' W 093°55'  
2017-Nov-11 00:04N 29°30' W 094°52'1 8.1
2017-Nov-10 23:55N 29°31' W 094°53'3 8.5
2017-Nov-10 23:30N 29°34' W 094°55'4 8.3
2017-Nov-10 23:00N 29°37' W 094°58'5 9.0
2017-Nov-10 22:30N 29°41' W 094°59'5 7.9
2017-Nov-10 21:54N 29°44' W 095°04'  

Dump ship's entire track history